sensor_id;sensor_type;location;lat;lon;timestamp;pressure;altitude;pressure_sealevel;temperature;humidity
73674;BME280;61975;48.660;10.164;2023-04-30T00:01:37;95802.38;;;11.24;100.00
73674;BME280;61975;48.660;10.164;2023-04-30T00:04:02;95811.19;;;11.34;100.00
73674;BME280;61975;48.660;10.164;2023-04-30T00:06:28;95811.69;;;11.43;100.00
73674;BME280;61975;48.660;10.164;2023-04-30T00:08:53;95816.09;;;11.51;99.67
73674;BME280;61975;48.660;10.164;2023-04-30T00:11:19;95812.97;;;11.56;99.07
73674;BME280;61975;48.660;10.164;2023-04-30T00:13:44;95827.66;;;11.53;99.29
73674;BME280;61975;48.660;10.164;2023-04-30T00:16:10;95832.41;;;11.52;99.81
73674;BME280;61975;48.660;10.164;2023-04-30T00:18:36;95822.41;;;11.44;100.00
73674;BME280;61975;48.660;10.164;2023-04-30T00:21:01;95832.22;;;11.35;100.00
73674;BME280;61975;48.660;10.164;2023-04-30T00:23:27;95830.72;;;11.41;100.00
73674;BME280;61975;48.660;10.164;2023-04-30T00:25:52;95834.38;;;11.52;99.58
73674;BME280;61975;48.660;10.164;2023-04-30T00:28:18;95834.81;;;11.54;98.90
73674;BME280;61975;48.660;10.164;2023-04-30T00:30:44;95833.97;;;11.50;99.26
73674;BME280;61975;48.660;10.164;2023-04-30T00:33:10;95841.44;;;11.42;100.00
73674;BME280;61975;48.660;10.164;2023-04-30T00:35:35;95841.56;;;11.56;98.56
73674;BME280;61975;48.660;10.164;2023-04-30T00:38:00;95846.81;;;11.61;98.39
73674;BME280;61975;48.660;10.164;2023-04-30T00:40:26;95854.75;;;11.63;99.66
73674;BME280;61975;48.660;10.164;2023-04-30T00:42:51;95853.97;;;11.66;99.57
73674;BME280;61975;48.660;10.164;2023-04-30T00:45:20;95858.00;;;11.68;99.71
73674;BME280;61975;48.660;10.164;2023-04-30T00:47:46;95854.03;;;11.69;99.32
73674;BME280;61975;48.660;10.164;2023-04-30T00:50:12;95847.66;;;11.69;99.39
73674;BME280;61975;48.660;10.164;2023-04-30T00:52:43;95843.69;;;11.70;99.10
73674;BME280;61975;48.660;10.164;2023-04-30T00:55:12;95855.63;;;11.70;99.18
73674;BME280;61975;48.660;10.164;2023-04-30T00:57:38;95849.66;;;11.72;98.41
73674;BME280;61975;48.660;10.164;2023-04-30T01:00:05;95843.69;;;11.70;98.55
73674;BME280;61975;48.660;10.164;2023-04-30T01:02:34;95854.41;;;11.68;98.19
73674;BME280;61975;48.660;10.164;2023-04-30T01:05:01;95856.00;;;11.69;98.05
73674;BME280;61975;48.660;10.164;2023-04-30T01:07:27;95855.59;;;11.67;97.53
73674;BME280;61975;48.660;10.164;2023-04-30T01:09:53;95853.59;;;11.64;96.56
73674;BME280;61975;48.660;10.164;2023-04-30T01:15:27;95847.88;;;11.53;95.47
73674;BME280;61975;48.660;10.164;2023-04-30T01:20:22;95846.69;;;11.51;96.42
73674;BME280;61975;48.660;10.164;2023-04-30T01:22:56;95848.25;;;11.48;95.67
73674;BME280;61975;48.660;10.164;2023-04-30T01:28:31;95853.38;;;11.46;96.15
73674;BME280;61975;48.660;10.164;2023-04-30T01:30:59;95850.97;;;11.41;97.07
73674;BME280;61975;48.660;10.164;2023-04-30T01:33:24;95847.00;;;11.39;96.94
73674;BME280;61975;48.660;10.164;2023-04-30T01:36:01;95846.19;;;11.38;95.98
73674;BME280;61975;48.660;10.164;2023-04-30T01:46:29;95851.56;;;11.20;97.47
73674;BME280;61975;48.660;10.164;2023-04-30T01:51:30;95853.78;;;11.04;100.00
73674;BME280;61975;48.660;10.164;2023-04-30T01:54:02;95849.94;;;11.16;100.00
73674;BME280;61975;48.660;10.164;2023-04-30T01:56:37;95850.78;;;11.20;99.79
73674;BME280;61975;48.660;10.164;2023-04-30T01:59:05;95849.97;;;11.19;100.00
73674;BME280;61975;48.660;10.164;2023-04-30T02:01:32;95851.09;;;11.11;100.00
73674;BME280;61975;48.660;10.164;2023-04-30T02:03:58;95854.16;;;11.03;100.00
73674;BME280;61975;48.660;10.164;2023-04-30T02:06:24;95848.19;;;11.01;100.00
73674;BME280;61975;48.660;10.164;2023-04-30T02:08:54;95852.69;;;11.12;100.00
73674;BME280;61975;48.660;10.164;2023-04-30T02:11:21;95847.50;;;11.11;99.75
73674;BME280;61975;48.660;10.164;2023-04-30T02:13:49;95842.75;;;11.11;99.97
73674;BME280;61975;48.660;10.164;2023-04-30T02:16:14;95840.34;;;11.10;100.00
73674;BME280;61975;48.660;10.164;2023-04-30T02:18:39;95849.44;;;11.07;100.00
73674;BME280;61975;48.660;10.164;2023-04-30T02:21:05;95838.03;;;11.15;99.69
73674;BME280;61975;48.660;10.164;2023-04-30T02:23:30;95842.38;;;11.13;99.44
73674;BME280;61975;48.660;10.164;2023-04-30T02:25:56;95858.44;;;10.93;100.00
73674;BME280;61975;48.660;10.164;2023-04-30T02:28:21;95847.03;;;11.05;100.00
73674;BME280;61975;48.660;10.164;2023-04-30T02:30:46;95851.09;;;11.11;99.27
73674;BME280;61975;48.660;10.164;2023-04-30T02:33:12;95852.63;;;11.09;99.40
73674;BME280;61975;48.660;10.164;2023-04-30T02:35:39;95853.88;;;11.15;100.00
73674;BME280;61975;48.660;10.164;2023-04-30T02:38:05;95851.09;;;11.15;99.50
73674;BME280;61975;48.660;10.164;2023-04-30T02:40:30;95851.50;;;11.13;98.77
73674;BME280;61975;48.660;10.164;2023-04-30T02:42:56;95846.69;;;11.10;98.94
73674;BME280;61975;48.660;10.164;2023-04-30T02:45:21;95843.81;;;11.00;100.00
73674;BME280;61975;48.660;10.164;2023-04-30T02:47:47;95849.84;;;11.09;99.94
73674;BME280;61975;48.660;10.164;2023-04-30T02:50:13;95851.09;;;11.11;100.00
73674;BME280;61975;48.660;10.164;2023-04-30T02:52:38;95852.69;;;11.12;100.00
73674;BME280;61975;48.660;10.164;2023-04-30T02:55:04;95849.13;;;11.15;99.43
73674;BME280;61975;48.660;10.164;2023-04-30T02:57:30;95862.59;;;11.13;99.59
73674;BME280;61975;48.660;10.164;2023-04-30T02:59:55;95851.50;;;11.13;100.00
73674;BME280;61975;48.660;10.164;2023-04-30T03:02:21;95858.47;;;10.97;100.00
73674;BME280;61975;48.660;10.164;2023-04-30T03:04:48;95856.13;;;11.02;100.00
73674;BME280;61975;48.660;10.164;2023-04-30T03:07:13;95850.66;;;11.09;100.00
73674;BME280;61975;48.660;10.164;2023-04-30T03:09:39;95842.31;;;11.09;100.00
73674;BME280;61975;48.660;10.164;2023-04-30T03:12:04;95840.91;;;10.89;100.00
73674;BME280;61975;48.660;10.164;2023-04-30T03:14:30;95845.03;;;11.02;100.00
73674;BME280;61975;48.660;10.164;2023-04-30T03:16:55;95845.78;;;10.99;100.00
73674;BME280;61975;48.660;10.164;2023-04-30T03:19:21;95847.00;;;11.02;100.00
73674;BME280;61975;48.660;10.164;2023-04-30T03:21:52;95843.28;;;10.87;100.00
73674;BME280;61975;48.660;10.164;2023-04-30T03:24:18;95835.88;;;10.98;100.00
73674;BME280;61975;48.660;10.164;2023-04-30T03:26:44;95842.22;;;10.99;100.00
73674;BME280;61975;48.660;10.164;2023-04-30T03:29:09;95840.31;;;11.06;100.00
73674;BME280;61975;48.660;10.164;2023-04-30T03:31:34;95837.13;;;11.04;100.00
73674;BME280;61975;48.660;10.164;2023-04-30T03:34:00;95825.19;;;11.00;100.00
73674;BME280;61975;48.660;10.164;2023-04-30T03:36:25;95828.28;;;10.92;100.00
73674;BME280;61975;48.660;10.164;2023-04-30T03:38:51;95831.38;;;10.87;100.00
73674;BME280;61975;48.660;10.164;2023-04-30T03:41:17;95823.03;;;10.83;100.00
73674;BME280;61975;48.660;10.164;2023-04-30T03:43:42;95823.09;;;10.90;100.00
73674;BME280;61975;48.660;10.164;2023-04-30T03:46:07;95819.50;;;10.90;100.00
73674;BME280;61975;48.660;10.164;2023-04-30T03:48:33;95823.84;;;10.87;100.00
73674;BME280;61975;48.660;10.164;2023-04-30T03:50:58;95832.19;;;10.91;100.00
73674;BME280;61975;48.660;10.164;2023-04-30T03:53:24;95821.91;;;10.91;100.00
73674;BME280;61975;48.660;10.164;2023-04-30T03:55:50;95824.69;;;10.91;100.00
73674;BME280;61975;48.660;10.164;2023-04-30T03:58:16;95826.56;;;10.80;100.00
73674;BME280;61975;48.660;10.164;2023-04-30T04:00:42;95830.84;;;10.74;100.00
73674;BME280;61975;48.660;10.164;2023-04-30T04:03:10;95821.75;;;10.77;100.00
73674;BME280;61975;48.660;10.164;2023-04-30T04:05:35;95822.59;;;10.81;100.00
73674;BME280;61975;48.660;10.164;2023-04-30T04:08:01;95826.13;;;10.78;100.00
73674;BME280;61975;48.660;10.164;2023-04-30T04:10:26;95832.84;;;10.77;100.00
73674;BME280;61975;48.660;10.164;2023-04-30T04:12:52;95832.44;;;10.75;100.00
73674;BME280;61975;48.660;10.164;2023-04-30T04:15:17;95832.44;;;10.75;100.00
73674;BME280;61975;48.660;10.164;2023-04-30T04:17:42;95838.72;;;10.72;100.00
73674;BME280;61975;48.660;10.164;2023-04-30T04:20:08;95838.72;;;10.69;100.00
73674;BME280;61975;48.660;10.164;2023-04-30T04:22:34;95842.31;;;10.69;100.00
73674;BME280;61975;48.660;10.164;2023-04-30T04:24:59;95840.69;;;10.68;100.00
73674;BME280;61975;48.660;10.164;2023-04-30T04:27:25;95839.09;;;10.67;100.00
73674;BME280;61975;48.660;10.164;2023-04-30T04:29:51;95837.03;;;10.61;100.00
73674;BME280;61975;48.660;10.164;2023-04-30T04:32:17;95843.38;;;10.61;100.00
73674;BME280;61975;48.660;10.164;2023-04-30T04:34:42;95844.56;;;10.60;100.00
73674;BME280;61975;48.660;10.164;2023-04-30T04:37:08;95856.41;;;10.57;100.00
73674;BME280;61975;48.660;10.164;2023-04-30T04:39:34;95853.22;;;10.55;100.00
73674;BME280;61975;48.660;10.164;2023-04-30T04:42:01;95857.16;;;10.54;100.00
73674;BME280;61975;48.660;10.164;2023-04-30T04:44:27;95853.19;;;10.52;100.00
73674;BME280;61975;48.660;10.164;2023-04-30T04:46:53;95859.53;;;10.52;100.00
73674;BME280;61975;48.660;10.164;2023-04-30T04:49:18;95867.72;;;10.42;100.00
73674;BME280;61975;48.660;10.164;2023-04-30T04:51:44;95872.13;;;10.46;100.00
73674;BME280;61975;48.660;10.164;2023-04-30T04:54:10;95864.25;;;10.48;100.00
73674;BME280;61975;48.660;10.164;2023-04-30T04:56:35;95868.63;;;10.49;100.00
73674;BME280;61975;48.660;10.164;2023-04-30T04:59:01;95863.47;;;10.51;100.00
73674;BME280;61975;48.660;10.164;2023-04-30T05:01:26;95860.31;;;10.53;100.00
73674;BME280;61975;48.660;10.164;2023-04-30T05:03:51;95867.13;;;10.55;100.00
73674;BME280;61975;48.660;10.164;2023-04-30T05:06:18;95869.91;;;10.59;100.00
73674;BME280;61975;48.660;10.164;2023-04-30T05:08:43;95873.91;;;10.61;100.00
73674;BME280;61975;48.660;10.164;2023-04-30T05:11:09;95874.75;;;10.65;100.00
73674;BME280;61975;48.660;10.164;2023-04-30T05:13:34;95872.84;;;10.69;100.00
73674;BME280;61975;48.660;10.164;2023-04-30T05:16:00;95874.06;;;10.75;100.00
73674;BME280;61975;48.660;10.164;2023-04-30T05:18:26;95874.16;;;10.82;100.00
73674;BME280;61975;48.660;10.164;2023-04-30T05:20:51;95867.00;;;10.81;100.00
73674;BME280;61975;48.660;10.164;2023-04-30T05:23:16;95872.66;;;10.88;100.00
73674;BME280;61975;48.660;10.164;2023-04-30T05:25:42;95871.91;;;10.95;100.00
73674;BME280;61975;48.660;10.164;2023-04-30T05:28:07;95864.06;;;11.00;99.34
73674;BME280;61975;48.660;10.164;2023-04-30T05:30:33;95875.22;;;11.04;98.67
73674;BME280;61975;48.660;10.164;2023-04-30T05:32:58;95869.28;;;11.09;98.93
73674;BME280;61975;48.660;10.164;2023-04-30T05:35:24;95871.97;;;10.98;99.75
73674;BME280;61975;48.660;10.164;2023-04-30T05:37:49;95864.16;;;11.07;98.66
73674;BME280;61975;48.660;10.164;2023-04-30T05:40:15;95872.88;;;11.06;100.00
73674;BME280;61975;48.660;10.164;2023-04-30T05:42:41;95872.81;;;11.02;100.00
73674;BME280;61975;48.660;10.164;2023-04-30T05:45:11;95859.81;;;11.13;99.67
73674;BME280;61975;48.660;10.164;2023-04-30T05:47:38;95860.72;;;11.24;98.64
73674;BME280;61975;48.660;10.164;2023-04-30T05:50:08;95866.75;;;11.30;98.21
73674;BME280;61975;48.660;10.164;2023-04-30T05:52:34;95863.16;;;11.30;98.02
73674;BME280;61975;48.660;10.164;2023-04-30T05:54:59;95856.50;;;11.38;96.68
73674;BME280;61975;48.660;10.164;2023-04-30T05:57:25;95861.28;;;11.37;95.94
73674;BME280;61975;48.660;10.164;2023-04-30T05:59:50;95860.53;;;11.44;95.12
73674;BME280;61975;48.660;10.164;2023-04-30T06:02:16;95855.84;;;11.51;93.79
73674;BME280;61975;48.660;10.164;2023-04-30T06:04:41;95859.84;;;11.57;93.14
73674;BME280;61975;48.660;10.164;2023-04-30T06:07:07;95860.78;;;11.68;91.85
73674;BME280;61975;48.660;10.164;2023-04-30T06:09:33;95867.59;;;11.78;92.66
73674;BME280;61975;48.660;10.164;2023-04-30T06:11:58;95866.47;;;11.86;91.86
73674;BME280;61975;48.660;10.164;2023-04-30T06:14:24;95866.03;;;11.77;90.18
73674;BME280;61975;48.660;10.164;2023-04-30T06:16:49;95865.69;;;11.89;87.92
73674;BME280;61975;48.660;10.164;2023-04-30T06:19:15;95872.47;;;11.88;86.74
73674;BME280;61975;48.660;10.164;2023-04-30T06:21:40;95871.25;;;11.89;85.39
73674;BME280;61975;48.660;10.164;2023-04-30T06:24:08;95863.78;;;12.00;84.82
73674;BME280;61975;48.660;10.164;2023-04-30T06:26:33;95862.25;;;12.06;82.97
73674;BME280;61975;48.660;10.164;2023-04-30T06:28:59;95871.41;;;12.10;82.38
73674;BME280;61975;48.660;10.164;2023-04-30T06:31:25;95871.50;;;12.20;81.45
73674;BME280;61975;48.660;10.164;2023-04-30T06:33:50;95864.34;;;12.23;79.78
73674;BME280;61975;48.660;10.164;2023-04-30T06:36:16;95867.59;;;12.35;79.32
73674;BME280;61975;48.660;10.164;2023-04-30T06:38:43;95861.25;;;12.42;78.82
73674;BME280;61975;48.660;10.164;2023-04-30T06:41:08;95870.88;;;12.51;77.79
73674;BME280;61975;48.660;10.164;2023-04-30T06:43:34;95872.13;;;12.64;77.84
73674;BME280;61975;48.660;10.164;2023-04-30T06:45:59;95857.81;;;12.73;74.96
73674;BME280;61975;48.660;10.164;2023-04-30T06:48:25;95871.78;;;12.80;74.33
73674;BME280;61975;48.660;10.164;2023-04-30T06:50:50;95865.41;;;12.76;74.69
73674;BME280;61975;48.660;10.164;2023-04-30T06:53:16;95868.19;;;12.76;75.02
73674;BME280;61975;48.660;10.164;2023-04-30T06:55:41;95867.44;;;12.82;74.01
73674;BME280;61975;48.660;10.164;2023-04-30T06:58:07;95873.81;;;12.90;72.20
73674;BME280;61975;48.660;10.164;2023-04-30T07:00:35;95869.94;;;13.08;72.18
73674;BME280;61975;48.660;10.164;2023-04-30T07:03:01;95872.75;;;13.19;73.02
73674;BME280;61975;48.660;10.164;2023-04-30T07:05:28;95871.97;;;13.29;71.77
73674;BME280;61975;48.660;10.164;2023-04-30T07:07:54;95871.19;;;13.28;70.98
73674;BME280;61975;48.660;10.164;2023-04-30T07:10:19;95872.38;;;13.31;70.20
73674;BME280;61975;48.660;10.164;2023-04-30T07:12:45;95870.78;;;13.30;69.66
73674;BME280;61975;48.660;10.164;2023-04-30T07:15:10;95874.41;;;13.41;68.84
73674;BME280;61975;48.660;10.164;2023-04-30T07:17:36;95869.22;;;13.43;70.03
73674;BME280;61975;48.660;10.164;2023-04-30T07:20:03;95862.84;;;13.42;69.63
73674;BME280;61975;48.660;10.164;2023-04-30T07:22:30;95863.66;;;13.50;69.78
73674;BME280;61975;48.660;10.164;2023-04-30T07:24:55;95865.66;;;13.56;68.91
73674;BME280;61975;48.660;10.164;2023-04-30T07:27:21;95854.88;;;13.58;67.73
73674;BME280;61975;48.660;10.164;2023-04-30T07:29:46;95865.25;;;13.51;69.19
73674;BME280;61975;48.660;10.164;2023-04-30T07:32:12;95870.84;;;13.58;68.44
73674;BME280;61975;48.660;10.164;2023-04-30T07:34:39;95857.69;;;13.69;66.81
73674;BME280;61975;48.660;10.164;2023-04-30T07:37:04;95863.28;;;13.83;66.10
73674;BME280;61975;48.660;10.164;2023-04-30T07:39:30;95862.88;;;13.92;66.35
73674;BME280;61975;48.660;10.164;2023-04-30T07:41:55;95864.06;;;14.01;67.05
73674;BME280;61975;48.660;10.164;2023-04-30T07:44:21;95862.47;;;14.07;65.90
73674;BME280;61975;48.660;10.164;2023-04-30T07:46:46;95864.06;;;14.19;64.77
73674;BME280;61975;48.660;10.164;2023-04-30T07:49:12;95858.09;;;14.06;65.32
73674;BME280;61975;48.660;10.164;2023-04-30T07:51:37;95864.06;;;13.98;63.91
73674;BME280;61975;48.660;10.164;2023-04-30T07:54:03;95869.25;;;14.06;64.82
73674;BME280;61975;48.660;10.164;2023-04-30T07:56:29;95858.47;;;13.94;62.69
73674;BME280;61975;48.660;10.164;2023-04-30T07:58:55;95859.25;;;14.12;61.70
73674;BME280;61975;48.660;10.164;2023-04-30T08:01:20;95861.66;;;14.17;62.87
73674;BME280;61975;48.660;10.164;2023-04-30T08:03:45;95858.47;;;14.08;62.01
73674;BME280;61975;48.660;10.164;2023-04-30T08:06:11;95859.66;;;14.21;61.04
73674;BME280;61975;48.660;10.164;2023-04-30T08:08:36;95865.25;;;14.39;62.58
73674;BME280;61975;48.660;10.164;2023-04-30T08:11:02;95865.59;;;14.55;64.15
73674;BME280;61975;48.660;10.164;2023-04-30T08:13:27;95857.16;;;14.69;65.68
73674;BME280;61975;48.660;10.164;2023-04-30T08:15:53;95846.00;;;14.62;60.20
73674;BME280;61975;48.660;10.164;2023-04-30T08:18:18;95852.34;;;14.80;65.71
73674;BME280;61975;48.660;10.164;2023-04-30T08:20:45;95852.34;;;14.73;61.36
73674;BME280;61975;48.660;10.164;2023-04-30T08:23:10;95856.00;;;14.70;57.47
73674;BME280;61975;48.660;10.164;2023-04-30T08:25:36;95849.09;;;14.88;59.45
73674;BME280;61975;48.660;10.164;2023-04-30T08:28:01;95851.50;;;14.93;59.08
73674;BME280;61975;48.660;10.164;2023-04-30T08:30:27;95847.13;;;14.92;57.66
73674;BME280;61975;48.660;10.164;2023-04-30T08:32:52;95851.78;;;15.13;60.49
73674;BME280;61975;48.660;10.164;2023-04-30T08:35:19;95851.75;;;15.23;56.77
73674;BME280;61975;48.660;10.164;2023-04-30T08:37:45;95849.69;;;15.31;56.75
73674;BME280;61975;48.660;10.164;2023-04-30T08:40:10;95850.16;;;15.19;56.27
73674;BME280;61975;48.660;10.164;2023-04-30T08:42:37;95857.34;;;15.20;57.29
73674;BME280;61975;48.660;10.164;2023-04-30T08:45:08;95853.28;;;15.31;56.71
73674;BME280;61975;48.660;10.164;2023-04-30T08:47:36;95858.88;;;15.31;56.22
73674;BME280;61975;48.660;10.164;2023-04-30T08:50:03;95856.47;;;15.33;56.04
73674;BME280;61975;48.660;10.164;2023-04-30T08:52:33;95856.44;;;15.40;55.95
73674;BME280;61975;48.660;10.164;2023-04-30T08:55:00;95854.41;;;15.48;56.41
73674;BME280;61975;48.660;10.164;2023-04-30T08:57:25;95860.81;;;15.48;56.29
73674;BME280;61975;48.660;10.164;2023-04-30T08:59:52;95854.75;;;15.57;56.91
73674;BME280;61975;48.660;10.164;2023-04-30T09:02:17;95850.28;;;15.66;56.85
73674;BME280;61975;48.660;10.164;2023-04-30T09:04:43;95859.50;;;15.67;55.90
73674;BME280;61975;48.660;10.164;2023-04-30T09:07:09;95857.88;;;15.69;55.37
73674;BME280;61975;48.660;10.164;2023-04-30T09:09:38;95861.06;;;15.68;55.13
73674;BME280;61975;48.660;10.164;2023-04-30T09:14:40;95857.53;;;15.60;53.35
73674;BME280;61975;48.660;10.164;2023-04-30T09:17:06;95857.63;;;15.50;53.12
73674;BME280;61975;48.660;10.164;2023-04-30T09:19:33;95856.50;;;15.37;52.42
73674;BME280;61975;48.660;10.164;2023-04-30T09:22:25;95857.16;;;15.55;52.86
73674;BME280;61975;48.660;10.164;2023-04-30T09:24:50;95855.06;;;15.69;51.49
73674;BME280;61975;48.660;10.164;2023-04-30T09:27:17;95863.03;;;15.74;51.00
73674;BME280;61975;48.660;10.164;2023-04-30T09:29:43;95860.63;;;15.76;51.20
73674;BME280;61975;48.660;10.164;2023-04-30T09:32:10;95868.56;;;15.85;52.25
73674;BME280;61975;48.660;10.164;2023-04-30T09:34:35;95860.91;;;15.89;51.19
73674;BME280;61975;48.660;10.164;2023-04-30T09:37:01;95859.75;;;15.86;50.25
73674;BME280;61975;48.660;10.164;2023-04-30T09:39:27;95860.97;;;15.78;49.30
73674;BME280;61975;48.660;10.164;2023-04-30T09:42:06;95860.97;;;15.78;49.64
73674;BME280;61975;48.660;10.164;2023-04-30T09:44:36;95857.81;;;15.76;49.78
73674;BME280;61975;48.660;10.164;2023-04-30T09:47:02;95857.00;;;15.79;49.28
73674;BME280;61975;48.660;10.164;2023-04-30T09:49:27;95851.41;;;15.76;48.39
73674;BME280;61975;48.660;10.164;2023-04-30T09:51:58;95863.84;;;15.71;49.29
73674;BME280;61975;48.660;10.164;2023-04-30T09:54:28;95855.53;;;15.61;49.82
73674;BME280;61975;48.660;10.164;2023-04-30T09:56:55;95859.03;;;15.72;49.62
73674;BME280;61975;48.660;10.164;2023-04-30T09:59:30;95855.13;;;15.62;49.68
73674;BME280;61975;48.660;10.164;2023-04-30T10:01:58;95857.88;;;15.69;49.81
73674;BME280;61975;48.660;10.164;2023-04-30T10:04:26;95859.44;;;15.70;50.15
73674;BME280;61975;48.660;10.164;2023-04-30T10:06:53;95856.28;;;15.65;50.59
73674;BME280;61975;48.660;10.164;2023-04-30T10:09:24;95857.97;;;15.55;50.37
73674;BME280;61975;48.660;10.164;2023-04-30T10:11:50;95859.59;;;15.49;50.21
73674;BME280;61975;48.660;10.164;2023-04-30T10:14:18;95856.41;;;15.51;50.81
73674;BME280;61975;48.660;10.164;2023-04-30T10:16:50;95855.88;;;15.66;51.05
73674;BME280;61975;48.660;10.164;2023-04-30T10:19:22;95853.09;;;15.66;50.91
73674;BME280;61975;48.660;10.164;2023-04-30T10:21:48;95849.84;;;15.71;50.75
73674;BME280;61975;48.660;10.164;2023-04-30T10:24:15;95849.84;;;15.71;50.68
73674;BME280;61975;48.660;10.164;2023-04-30T10:26:44;95845.91;;;15.62;50.92
73674;BME280;61975;48.660;10.164;2023-04-30T10:29:13;95854.72;;;15.60;50.26
73674;BME280;61975;48.660;10.164;2023-04-30T10:31:40;95846.28;;;15.67;49.94
73674;BME280;61975;48.660;10.164;2023-04-30T10:34:14;95840.97;;;15.80;49.75
73674;BME280;61975;48.660;10.164;2023-04-30T10:36:46;95841.91;;;15.66;49.19
73674;BME280;61975;48.660;10.164;2023-04-30T10:39:20;95833.94;;;15.61;49.65
73674;BME280;61975;48.660;10.164;2023-04-30T10:41:46;95844.25;;;15.71;50.09
73674;BME280;61975;48.660;10.164;2023-04-30T10:44:13;95833.84;;;15.72;49.72
73674;BME280;61975;48.660;10.164;2023-04-30T10:46:39;95843.88;;;15.69;50.17
73674;BME280;61975;48.660;10.164;2023-04-30T10:49:05;95835.94;;;15.61;50.36
73674;BME280;61975;48.660;10.164;2023-04-30T10:51:47;95833.84;;;15.75;50.62
73674;BME280;61975;48.660;10.164;2023-04-30T10:54:15;95829.28;;;15.92;50.57
73674;BME280;61975;48.660;10.164;2023-04-30T10:56:44;95839.28;;;15.93;49.84
73674;BME280;61975;48.660;10.164;2023-04-30T10:59:10;95829.59;;;16.04;49.53
73674;BME280;61975;48.660;10.164;2023-04-30T11:01:58;95829.44;;;16.18;49.23
73674;BME280;61975;48.660;10.164;2023-04-30T11:04:24;95823.31;;;16.30;48.86
73674;BME280;61975;48.660;10.164;2023-04-30T11:06:55;95824.44;;;16.40;49.34
73674;BME280;61975;48.660;10.164;2023-04-30T11:09:41;95822.69;;;16.57;48.50
73674;BME280;61975;48.660;10.164;2023-04-30T11:12:15;95826.16;;;16.68;50.39
73674;BME280;61975;48.660;10.164;2023-04-30T11:14:44;95824.59;;;16.63;48.98
73674;BME280;61975;48.660;10.164;2023-04-30T11:17:12;95826.28;;;16.57;49.52
73674;BME280;61975;48.660;10.164;2023-04-30T11:19:49;95833.16;;;16.49;49.04
73674;BME280;61975;48.660;10.164;2023-04-30T11:22:17;95832.44;;;16.41;49.70
73674;BME280;61975;48.660;10.164;2023-04-30T11:25:07;95826.69;;;16.56;49.75
73674;BME280;61975;48.660;10.164;2023-04-30T11:27:43;95824.31;;;16.54;48.60
73674;BME280;61975;48.660;10.164;2023-04-30T11:30:16;95825.88;;;16.59;48.49
73674;BME280;61975;48.660;10.164;2023-04-30T11:32:46;95823.66;;;16.77;49.17
73674;BME280;61975;48.660;10.164;2023-04-30T11:35:12;95821.31;;;17.02;47.57
73674;BME280;61975;48.660;10.164;2023-04-30T11:37:40;95826.75;;;17.16;46.84
73674;BME280;61975;48.660;10.164;2023-04-30T11:40:09;95821.25;;;17.35;46.98
73674;BME280;61975;48.660;10.164;2023-04-30T11:42:36;95815.88;;;17.48;46.38
73674;BME280;61975;48.660;10.164;2023-04-30T11:45:08;95819.09;;;17.50;47.54
73674;BME280;61975;48.660;10.164;2023-04-30T11:47:44;95819.19;;;17.43;46.11
73674;BME280;61975;48.660;10.164;2023-04-30T11:50:13;95814.59;;;17.26;47.61
73674;BME280;61975;48.660;10.164;2023-04-30T11:52:39;95816.66;;;17.22;47.40
73674;BME280;61975;48.660;10.164;2023-04-30T11:55:12;95818.88;;;17.34;47.58
73674;BME280;61975;48.660;10.164;2023-04-30T11:57:39;95808.63;;;17.50;47.08
73674;BME280;61975;48.660;10.164;2023-04-30T12:00:17;95808.44;;;17.64;47.22
73674;BME280;61975;48.660;10.164;2023-04-30T12:02:44;95800.09;;;17.84;47.53
73674;BME280;61975;48.660;10.164;2023-04-30T12:05:21;95799.38;;;18.03;45.49
73674;BME280;61975;48.660;10.164;2023-04-30T12:07:49;95794.00;;;18.12;45.79
73674;BME280;61975;48.660;10.164;2023-04-30T12:10:15;95796.50;;;18.06;45.81
73674;BME280;61975;48.660;10.164;2023-04-30T12:12:44;95790.28;;;17.95;44.87
73674;BME280;61975;48.660;10.164;2023-04-30T12:15:14;95796.09;;;17.81;44.32
73674;BME280;61975;48.660;10.164;2023-04-30T12:17:40;95793.75;;;17.80;45.48
73674;BME280;61975;48.660;10.164;2023-04-30T12:20:09;95798.59;;;17.76;45.69
73674;BME280;61975;48.660;10.164;2023-04-30T12:22:35;95790.44;;;17.85;45.72
73674;BME280;61975;48.660;10.164;2023-04-30T12:25:10;95788.06;;;18.06;45.08
73674;BME280;61975;48.660;10.164;2023-04-30T12:27:38;95789.53;;;18.37;45.04
73674;BME280;61975;48.660;10.164;2023-04-30T12:30:07;95782.31;;;18.36;43.82
73674;BME280;61975;48.660;10.164;2023-04-30T12:35:05;95781.53;;;18.36;43.42
73674;BME280;61975;48.660;10.164;2023-04-30T12:37:31;95785.66;;;18.28;44.12
73674;BME280;61975;48.660;10.164;2023-04-30T12:39:57;95782.50;;;18.26;44.85
73674;BME280;61975;48.660;10.164;2023-04-30T12:42:23;95771.81;;;18.17;43.32
73674;BME280;61975;48.660;10.164;2023-04-30T12:44:49;95774.31;;;18.12;43.09
73674;BME280;61975;48.660;10.164;2023-04-30T12:47:14;95772.13;;;18.23;43.20
73674;BME280;61975;48.660;10.164;2023-04-30T12:49:40;95782.16;;;18.01;43.75
73674;BME280;61975;48.660;10.164;2023-04-30T12:52:10;95763.41;;;17.71;43.83
73674;BME280;61975;48.660;10.164;2023-04-30T12:54:36;95770.09;;;17.77;44.71
73674;BME280;61975;48.660;10.164;2023-04-30T12:57:06;95762.25;;;17.92;44.51
73674;BME280;61975;48.660;10.164;2023-04-30T12:59:54;95764.19;;;17.95;43.72
73674;BME280;61975;48.660;10.164;2023-04-30T13:02:26;95764.38;;;17.84;44.22
73674;BME280;61975;48.660;10.164;2023-04-30T13:04:52;95759.81;;;17.94;44.07
73674;BME280;61975;48.660;10.164;2023-04-30T13:07:18;95751.59;;;18.03;44.08
73674;BME280;61975;48.660;10.164;2023-04-30T13:09:45;95754.59;;;18.35;42.15
73674;BME280;61975;48.660;10.164;2023-04-30T13:12:12;95753.00;;;18.57;42.22